Time;durP1;ratioP1;P1;durP2;ratioP2;P2;SDS_P1;SDS_P2;PMS_P1;PMS_P2;Temp;Humidity;BMP_temperature;BMP_pressure;BME280_temperature;BME280_humidity;BME280_pressure;Samples;Min_cycle;Max_cycle;Signal;HPM_P1;HPM_P2
2022/01/05 00:00:26;;;;;;;5.53;1.92;;;-20.80;95.30;;;;;;2220197;64;20077;-37
2022/01/05 00:02:58;;;;;;;4.83;3.47;;;-20.90;95.10;;;;;;2223443;64;20177;-33
2022/01/05 00:05:31;;;;;;;4.23;2.53;;;-21.00;95.00;;;;;;2212184;64;20212;-34
2022/01/05 00:08:04;;;;;;;6.50;3.13;;;-21.10;95.10;;;;;;2212184;64;20161;-34
2022/01/05 00:10:36;;;;;;;8.37;4.43;;;-21.20;95.00;;;;;;2215265;64;20492;-33
2022/01/05 00:13:10;;;;;;;12.97;5.47;;;-21.20;95.20;;;;;;2215551;64;20085;-33
2022/01/05 00:15:43;;;;;;;8.27;3.13;;;-21.30;95.30;;;;;;2212341;64;20484;-32
2022/01/05 00:18:15;;;;;;;9.57;3.47;;;-21.40;95.20;;;;;;2215459;64;20612;-32
2022/01/05 00:20:48;;;;;;;1.07;0.73;;;-21.40;95.10;;;;;;2215471;64;20093;-32
2022/01/05 00:23:27;;;;;;;9.87;3.83;;;-21.50;95.30;;;;;;2212179;64;20111;-32
2022/01/05 00:26:03;;;;;;;10.13;3.47;;;-21.50;95.70;;;;;;2211004;64;20081;-31
2022/01/05 00:28:35;;;;;;;4.93;2.80;;;-21.60;95.60;;;;;;2215423;64;20085;-32
2022/01/05 00:31:07;;;;;;;10.73;4.37;;;-21.60;95.60;;;;;;2212220;64;20473;-32
2022/01/05 00:33:38;;;;;;;12.23;4.53;;;-21.60;95.70;;;;;;2215373;64;20165;-32
2022/01/05 00:36:10;;;;;;;15.13;4.60;;;-21.60;95.50;;;;;;2215417;64;20655;-31
2022/01/05 00:38:45;;;;;;;12.82;3.45;;;-21.70;95.40;;;;;;2212225;64;20188;-32
2022/01/05 00:41:17;;;;;;;15.00;2.90;;;-21.70;95.20;;;;;;2215310;64;20557;-35
2022/01/05 00:43:50;;;;;;;3.55;2.05;;;-21.80;95.30;;;;;;2219128;64;20107;-33
2022/01/05 00:46:23;;;;;;;1.20;0.67;;;-21.80;95.60;;;;;;2223237;64;20104;-31
2022/01/05 00:48:54;;;;;;;3.80;2.97;;;-21.80;95.80;;;;;;2220099;64;20081;-33
2022/01/05 00:51:31;;;;;;;1.20;0.77;;;-21.80;95.70;;;;;;2223224;64;20108;-31
2022/01/05 00:54:02;;;;;;;6.37;2.97;;;-21.90;95.30;;;;;;2223234;64;20115;-32
2022/01/05 00:56:34;;;;;;;3.07;1.67;;;-21.90;95.00;;;;;;2220038;64;20488;-31
2022/01/05 00:59:06;;;;;;;4.13;2.33;;;-22.00;95.00;;;;;;2223098;64;20132;-32
2022/01/05 01:01:38;;;;;;;11.83;3.97;;;-22.00;94.90;;;;;;2223365;64;20185;-33
2022/01/05 01:04:09;;;;;;;14.63;4.03;;;-22.00;95.00;;;;;;2219942;64;20100;-32
2022/01/05 01:06:41;;;;;;;11.23;5.43;;;-22.00;95.10;;;;;;2223216;64;20088;-31
2022/01/05 01:09:13;;;;;;;8.40;2.50;;;-22.00;95.30;;;;;;2220110;64;20143;-32
2022/01/05 01:11:45;;;;;;;2.40;1.47;;;-22.10;95.30;;;;;;2220123;64;20134;-31
2022/01/05 01:14:18;;;;;;;1.33;1.23;;;-22.00;95.50;;;;;;2223428;64;20173;-30
2022/01/05 01:16:49;;;;;;;5.93;1.70;;;-21.60;97.00;;;;;;2220291;64;20088;-31
2022/01/05 01:19:25;;;;;;;5.77;2.13;;;-21.30;97.90;;;;;;2220147;64;20084;-35
2022/01/05 01:21:58;;;;;;;1.13;0.37;;;-21.30;98.10;;;;;;2223202;64;20093;-31
2022/01/05 01:24:29;;;;;;;0.27;0.27;;;-21.20;98.40;;;;;;2220036;64;20084;-32
2022/01/05 01:27:01;;;;;;;4.00;2.17;;;-21.30;98.20;;;;;;2223015;64;20299;-34
2022/01/05 01:29:33;;;;;;;11.43;3.23;;;-21.10;98.40;;;;;;2220293;64;20099;-31
2022/01/05 01:32:05;;;;;;;4.43;0.87;;;-21.00;98.60;;;;;;2223176;64;20096;-32
2022/01/05 01:34:36;;;;;;;0.63;0.63;;;-21.00;98.50;;;;;;2223437;64;20510;-32
2022/01/05 01:37:08;;;;;;;2.27;2.10;;;-20.90;98.60;;;;;;2223286;64;20174;-36
2022/01/05 01:39:40;;;;;;;3.70;1.13;;;-20.80;98.60;;;;;;2223216;64;20170;-30
2022/01/05 01:42:11;;;;;;;1.80;0.93;;;-20.80;98.60;;;;;;2223316;64;20093;-34
2022/01/05 01:44:44;;;;;;;5.83;3.40;;;-20.70;98.70;;;;;;2223098;64;20527;-34
2022/01/05 01:47:15;;;;;;;4.23;1.80;;;-20.80;98.50;;;;;;2223058;64;20110;-34
2022/01/05 01:49:47;;;;;;;10.37;4.03;;;-20.70;98.40;;;;;;2223153;64;20112;-36
2022/01/05 01:52:19;;;;;;;0.43;0.43;;;-20.70;98.40;;;;;;2223163;64;20089;-37
2022/01/05 01:54:51;;;;;;;2.43;0.73;;;-20.70;98.40;;;;;;2223199;64;20526;-36
2022/01/05 01:57:23;;;;;;;7.47;3.47;;;-20.70;98.30;;;;;;2223099;64;20090;-36
2022/01/05 01:59:58;;;;;;;9.97;4.77;;;-20.80;98.20;;;;;;2219998;64;20100;-36
2022/01/05 02:02:29;;;;;;;21.23;6.30;;;-20.80;97.90;;;;;;2223018;64;20574;-36
2022/01/05 02:05:03;;;;;;;20.40;6.87;;;-20.90;97.70;;;;;;2220120;64;20166;-36
2022/01/05 02:07:34;;;;;;;32.55;10.30;;;-21.00;97.50;;;;;;2223173;64;20505;-32
2022/01/05 02:10:08;;;;;;;15.87;7.63;;;-20.90;97.60;;;;;;2223070;64;20104;-36
2022/01/05 02:12:39;;;;;;;14.17;5.87;;;-21.10;97.10;;;;;;2223108;64;20103;-33
2022/01/05 02:15:12;;;;;;;38.03;9.73;;;-21.20;96.60;;;;;;2223304;64;20103;-32
2022/01/05 02:18:09;;;;;;;16.80;6.37;;;-21.30;96.20;;;;;;2223118;64;20088;-33
2022/01/05 02:20:40;;;;;;;6.43;3.33;;;-21.30;96.10;;;;;;2223200;64;20152;-31
2022/01/05 02:23:15;;;;;;;5.73;1.87;;;-21.40;95.80;;;;;;2222908;64;20101;-32
2022/01/05 02:25:47;;;;;;;10.83;3.77;;;-21.50;95.60;;;;;;2221980;64;20181;-32
2022/01/05 02:28:23;;;;;;;12.47;5.90;;;-21.60;95.50;;;;;;2223185;64;20107;-33
2022/01/05 02:30:57;;;;;;;19.03;5.73;;;-21.70;95.40;;;;;;2222975;64;20085;-33
2022/01/05 02:33:29;;;;;;;8.27;3.83;;;-21.80;95.30;;;;;;2219992;64;20147;-31
2022/01/05 02:36:01;;;;;;;4.33;1.30;;;-21.80;95.20;;;;;;2223002;64;20144;-32
2022/01/05 02:38:36;;;;;;;9.23;4.50;;;-21.90;95.10;;;;;;2215964;64;20518;-34
2022/01/05 02:41:09;;;;;;;8.07;3.20;;;-21.90;95.00;;;;;;2223095;64;20084;-31
2022/01/05 02:43:42;;;;;;;5.35;2.45;;;-22.00;94.80;;;;;;2219839;64;20115;-32
2022/01/05 02:46:15;;;;;;;4.60;1.80;;;-22.10;94.70;;;;;;2219843;64;20112;-31
2022/01/05 02:48:49;;;;;;;1.15;1.15;;;-22.20;94.60;;;;;;2219974;64;20101;-32
2022/01/05 02:51:21;;;;;;;4.82;0.55;;;-22.20;94.70;;;;;;2219977;64;20088;-31
2022/01/05 02:53:53;;;;;;;0.20;0.20;;;-22.30;94.70;;;;;;2220185;64;20111;-31
2022/01/05 02:56:24;;;;;;;1.90;1.70;;;-22.20;95.20;;;;;;2219896;64;20085;-31
2022/01/05 02:58:56;;;;;;;7.00;1.27;;;-22.30;95.40;;;;;;2220106;64;20585;-32
2022/01/05 03:01:28;;;;;;;4.73;0.50;;;-22.20;95.50;;;;;;2219912;64;20108;-32
2022/01/05 03:04:02;;;;;;;2.90;1.80;;;-22.20;95.70;;;;;;2222838;64;20595;-30
2022/01/05 03:06:36;;;;;;;2.10;1.80;;;-22.30;95.60;;;;;;2219995;64;20173;-31
2022/01/05 03:09:11;;;;;;;1.80;1.40;;;-22.40;95.40;;;;;;2219860;64;20241;-33
2022/01/05 03:11:42;;;;;;;1.53;1.43;;;-22.50;95.20;;;;;;2222972;64;20159;-31
2022/01/05 03:14:14;;;;;;;16.40;7.30;;;-22.50;95.20;;;;;;2223047;64;20108;-32
2022/01/05 03:16:46;;;;;;;8.67;1.93;;;-22.50;95.30;;;;;;2220016;64;20076;-33
2022/01/05 03:19:17;;;;;;;1.73;0.83;;;-22.60;95.20;;;;;;2223065;64;20084;-32
2022/01/05 03:21:49;;;;;;;1.63;1.20;;;-22.60;94.90;;;;;;2222959;64;20440;-32
2022/01/05 03:24:21;;;;;;;3.97;2.30;;;-22.60;94.90;;;;;;2214089;64;20105;-34
2022/01/05 03:26:53;;;;;;;2.00;1.67;;;-22.70;94.80;;;;;;2208141;64;20549;-32
2022/01/05 03:29:24;;;;;;;0.83;0.67;;;-22.70;94.80;;;;;;2208447;64;20172;-31
2022/01/05 03:31:56;;;;;;;10.17;5.93;;;-22.70;94.80;;;;;;2208931;64;20105;-33
2022/01/05 03:34:28;;;;;;;10.03;3.03;;;-22.80;94.80;;;;;;2208819;64;20096;-31
2022/01/05 03:37:00;;;;;;;1.37;1.20;;;-22.80;94.90;;;;;;2208635;64;20577;-34
2022/01/05 03:39:31;;;;;;;13.53;5.07;;;-22.80;94.80;;;;;;2214888;64;20105;-32
2022/01/05 03:42:03;;;;;;;13.30;6.87;;;-22.80;94.80;;;;;;2208632;64;20268;-31
2022/01/05 03:44:35;;;;;;;14.80;4.93;;;-22.80;94.90;;;;;;2214755;64;20097;-35
2022/01/05 03:47:07;;;;;;;2.20;1.80;;;-22.80;95.30;;;;;;2208665;64;20137;-33
2022/01/05 03:49:39;;;;;;;1.60;1.50;;;-22.80;95.20;;;;;;2208612;64;20497;-32
2022/01/05 03:52:11;;;;;;;9.80;1.80;;;-22.90;94.90;;;;;;2208699;64;20092;-34
2022/01/05 03:54:42;;;;;;;0.00;0.00;;;-22.90;94.80;;;;;;2215720;64;20174;-31
2022/01/05 03:57:14;;;;;;;3.10;1.27;;;-22.80;95.00;;;;;;2219643;64;20112;-31
2022/01/05 03:59:46;;;;;;;17.87;5.67;;;-22.80;95.20;;;;;;2216593;64;20430;-32
2022/01/05 04:02:17;;;;;;;1.77;1.40;;;-22.70;95.50;;;;;;2216394;64;20169;-32
2022/01/05 04:04:49;;;;;;;0.77;0.63;;;-22.70;95.90;;;;;;2219555;64;20149;-33
2022/01/05 04:07:21;;;;;;;4.20;1.33;;;-22.70;95.80;;;;;;2212217;64;20641;-31
2022/01/05 04:09:52;;;;;;;1.60;0.87;;;-22.70;95.80;;;;;;2212366;64;20089;-31
2022/01/05 04:12:24;;;;;;;0.10;0.10;;;-22.50;96.20;;;;;;2212463;64;20089;-31
2022/01/05 04:14:56;;;;;;;4.20;1.43;;;-22.50;96.30;;;;;;2212499;64;20485;-33
2022/01/05 04:17:28;;;;;;;17.10;7.47;;;-22.30;96.70;;;;;;2212530;64;20528;-34
2022/01/05 04:20:00;;;;;;;14.00;3.97;;;-22.40;96.70;;;;;;2212637;64;20088;-32
2022/01/05 04:22:35;;;;;;;11.47;3.97;;;-22.40;96.60;;;;;;2212341;64;20450;-37
2022/01/05 04:25:07;;;;;;;5.50;2.30;;;-22.00;97.10;;;;;;2213873;64;20107;-33
2022/01/05 04:27:38;;;;;;;7.63;4.57;;;-21.60;98.00;;;;;;2220046;64;20596;-33
2022/01/05 04:30:11;;;;;;;14.53;5.30;;;-21.50;98.30;;;;;;2220008;64;20659;-32
2022/01/05 04:32:42;;;;;;;15.30;6.37;;;-21.30;98.40;;;;;;2223116;64;20645;-34
2022/01/05 04:35:14;;;;;;;12.70;4.03;;;-21.20;98.50;;;;;;2220141;64;20096;-34
2022/01/05 04:37:49;;;;;;;1.93;1.57;;;-21.20;98.30;;;;;;2219672;64;20088;-33
2022/01/05 04:40:22;;;;;;;18.70;5.87;;;-21.10;98.30;;;;;;2220210;64;20096;-31
2022/01/05 04:42:56;;;;;;;4.20;2.60;;;-20.90;98.40;;;;;;2220276;64;20177;-35
2022/01/05 04:45:27;;;;;;;19.67;7.07;;;-20.90;98.30;;;;;;2220298;64;20096;-37
2022/01/05 04:47:59;;;;;;;23.17;7.30;;;-20.90;98.20;;;;;;2220307;64;20469;-34
2022/01/05 04:50:31;;;;;;;13.73;5.03;;;-21.00;97.90;;;;;;2220431;64;20081;-32
2022/01/05 04:53:05;;;;;;;24.73;6.97;;;-21.00;97.60;;;;;;2220436;64;20170;-34
2022/01/05 04:55:41;;;;;;;20.97;5.80;;;-21.00;97.50;;;;;;2220367;64;20164;-36
2022/01/05 04:58:14;;;;;;;7.80;2.73;;;-20.90;97.70;;;;;;2220215;64;20119;-38
2022/01/05 05:00:50;;;;;;;9.18;2.22;;;-20.60;98.10;;;;;;2220268;64;20568;-37
2022/01/05 05:03:25;;;;;;;4.60;2.10;;;-20.60;98.10;;;;;;2223177;64;20101;-34
2022/01/05 05:06:00;;;;;;;0.77;0.77;;;-20.50;98.10;;;;;;2220250;64;20076;-35
2022/01/05 05:08:34;;;;;;;12.17;4.43;;;-20.50;98.10;;;;;;2217199;64;20104;-33
2022/01/05 05:11:07;;;;;;;26.23;9.57;;;-20.40;98.20;;;;;;2220265;64;20092;-33
2022/01/05 05:13:40;;;;;;;8.80;3.33;;;-20.40;98.10;;;;;;2220336;64;20311;-34
2022/01/05 05:16:14;;;;;;;23.70;9.13;;;-20.40;97.90;;;;;;2216012;64;20100;-36
2022/01/05 05:18:46;;;;;;;7.43;2.53;;;-20.40;97.90;;;;;;2216104;64;20085;-31
2022/01/05 05:21:18;;;;;;;3.20;0.60;;;-20.30;97.90;;;;;;2216100;64;20152;-34
2022/01/05 05:23:50;;;;;;;1.90;0.67;;;-20.20;97.90;;;;;;2215891;64;20085;-32
2022/01/05 05:26:22;;;;;;;10.30;6.43;;;-20.20;97.90;;;;;;2215813;64;20112;-32
2022/01/05 05:28:53;;;;;;;22.73;6.60;;;-20.10;98.20;;;;;;2216074;64;20099;-34
2022/01/05 05:31:25;;;;;;;13.80;6.30;;;-20.00;98.30;;;;;;2215759;64;20470;-31
2022/01/05 05:33:57;;;;;;;9.50;4.37;;;-20.00;98.20;;;;;;2215801;64;20123;-32
2022/01/05 05:36:29;;;;;;;1.57;1.17;;;-20.00;98.10;;;;;;2215841;64;20642;-32
2022/01/05 05:39:01;;;;;;;24.10;6.37;;;-20.00;98.10;;;;;;2215882;64;20698;-33
2022/01/05 05:41:32;;;;;;;13.33;4.90;;;-19.90;98.20;;;;;;2219152;64;20107;-31
2022/01/05 05:44:04;;;;;;;12.70;5.17;;;-19.80;98.20;;;;;;2219106;64;20259;-32
2022/01/05 05:46:36;;;;;;;10.63;4.73;;;-19.80;98.20;;;;;;2218568;64;20473;-38
2022/01/05 05:49:08;;;;;;;26.00;7.67;;;-19.90;97.90;;;;;;2219307;64;20085;-35
2022/01/05 05:51:40;;;;;;;24.73;8.53;;;-20.00;97.70;;;;;;2215936;64;20093;-33
2022/01/05 05:54:13;;;;;;;11.10;3.90;;;-19.90;97.80;;;;;;2216086;64;20131;-33
2022/01/05 05:56:45;;;;;;;19.02;8.10;;;-19.90;97.90;;;;;;2216168;64;20089;-33
2022/01/05 05:59:17;;;;;;;15.17;5.17;;;-19.90;97.80;;;;;;2219156;64;20096;-33
2022/01/05 06:01:49;;;;;;;19.07;7.80;;;-20.00;97.70;;;;;;2216009;64;20090;-31
2022/01/05 06:04:20;;;;;;;13.77;5.20;;;-19.90;97.80;;;;;;2218862;64;20089;-33
2022/01/05 06:06:52;;;;;;;31.27;8.10;;;-20.00;97.70;;;;;;2219115;64;20096;-32
2022/01/05 06:09:24;;;;;;;6.93;4.43;;;-20.00;97.60;;;;;;2216156;64;20170;-32
2022/01/05 06:11:56;;;;;;;9.80;3.10;;;-20.00;97.70;;;;;;2219031;64;20100;-31
2022/01/05 06:14:28;;;;;;;17.53;7.10;;;-19.90;97.80;;;;;;2216127;64;20085;-33
2022/01/05 06:16:59;;;;;;;16.17;8.70;;;-20.00;97.50;;;;;;2219166;64;20492;-33
2022/01/05 06:19:32;;;;;;;16.63;7.60;;;-20.00;97.60;;;;;;2219309;64;20629;-33
2022/01/05 06:22:04;;;;;;;14.30;5.63;;;-19.90;97.70;;;;;;2216318;64;20078;-35
2022/01/05 06:24:36;;;;;;;11.63;4.17;;;-19.60;98.00;;;;;;2219269;64;20089;-32
2022/01/05 06:27:09;;;;;;;22.80;9.23;;;-19.60;97.90;;;;;;2212235;64;20107;-32
2022/01/05 06:29:40;;;;;;;20.93;8.37;;;-19.70;97.60;;;;;;2216098;64;20093;-32
2022/01/05 06:32:12;;;;;;;11.83;4.33;;;-19.60;97.70;;;;;;2216066;64;20089;-32
2022/01/05 06:34:44;;;;;;;4.80;2.73;;;-19.00;98.70;;;;;;2215955;64;20097;-33
2022/01/05 06:37:17;;;;;;;6.03;2.10;;;-18.80;98.90;;;;;;2216080;64;20089;-32
2022/01/05 06:39:49;;;;;;;19.47;6.57;;;-18.50;98.90;;;;;;2215999;64;20089;-32
2022/01/05 06:42:20;;;;;;;25.27;10.70;;;-18.50;98.60;;;;;;2216039;64;20461;-34
2022/01/05 06:44:52;;;;;;;19.97;6.50;;;-18.50;98.00;;;;;;2213069;64;20089;-32
2022/01/05 06:47:24;;;;;;;15.03;5.73;;;-18.40;98.30;;;;;;2216083;64;20093;-33
2022/01/05 06:49:58;;;;;;;23.47;8.80;;;-18.20;98.50;;;;;;2215927;64;20545;-32
2022/01/05 06:52:32;;;;;;;23.73;10.97;;;-18.10;98.50;;;;;;2215607;64;20173;-32
2022/01/05 06:55:05;;;;;;;41.50;14.07;;;-17.90;98.60;;;;;;2211720;64;20251;-32
2022/01/05 06:57:39;;;;;;;23.77;11.43;;;-17.80;98.30;;;;;;2211744;64;20104;-32
2022/01/05 07:00:11;;;;;;;;;;;-17.60;98.50;;;;;;2209022;64;20097;-40
2022/01/05 07:02:49;;;;;;;20.47;8.17;;;-17.50;98.40;;;;;;2211955;64;20542;-31
2022/01/05 07:05:22;;;;;;;29.30;8.40;;;-17.30;98.60;;;;;;2209311;64;20108;-31
2022/01/05 07:07:54;;;;;;;21.80;7.53;;;-17.50;98.00;;;;;;2206112;64;20172;-33
2022/01/05 07:10:25;;;;;;;23.07;8.37;;;-17.30;98.30;;;;;;2212273;64;20115;-33
2022/01/05 07:13:00;;;;;;;40.73;14.23;;;-17.20;98.20;;;;;;2209418;64;20104;-33
2022/01/05 07:15:34;;;;;;;33.23;12.60;;;-17.10;98.20;;;;;;2209247;64;20557;-32
2022/01/05 07:18:11;;;;;;;39.37;13.93;;;-17.10;97.70;;;;;;2212397;64;20100;-32
2022/01/05 07:20:45;;;;;;;31.07;11.57;;;-17.00;97.90;;;;;;2209418;64;20177;-31
2022/01/05 07:23:17;;;;;;;28.43;12.37;;;-17.30;97.00;;;;;;2212186;64;20643;-31
2022/01/05 07:25:48;;;;;;;37.90;13.53;;;-17.30;97.10;;;;;;2217803;64;20147;-31
2022/01/05 07:28:21;;;;;;;48.67;16.20;;;-17.00;97.90;;;;;;2220252;64;20183;-31
2022/01/05 07:30:53;;;;;;;29.97;12.33;;;-16.80;97.80;;;;;;2220329;64;20166;-33
2022/01/05 07:33:26;;;;;;;29.57;12.20;;;-16.60;98.30;;;;;;2220398;64;20104;-33
2022/01/05 07:35:58;;;;;;;25.83;10.30;;;-17.00;96.50;;;;;;2215270;64;20097;-33
2022/01/05 07:38:30;;;;;;;16.17;5.60;;;-17.60;95.80;;;;;;2215397;64;20105;-37
2022/01/05 07:41:02;;;;;;;19.07;7.83;;;-18.10;95.50;;;;;;2212351;64;20096;-34
2022/01/05 07:43:34;;;;;;;23.03;7.73;;;-18.40;95.70;;;;;;2212197;64;20168;-32
2022/01/05 07:46:11;;;;;;;25.47;9.93;;;-18.20;96.00;;;;;;2209521;64;20105;-34
2022/01/05 07:48:43;;;;;;;35.70;11.47;;;-18.30;95.80;;;;;;2212339;64;20097;-31
2022/01/05 07:51:15;;;;;;;35.30;10.67;;;-17.80;96.50;;;;;;2209188;64;20558;-33
2022/01/05 07:53:47;;;;;;;33.83;13.43;;;-17.40;96.80;;;;;;2212356;64;20097;-33
2022/01/05 07:56:20;;;;;;;37.47;15.03;;;-17.20;96.70;;;;;;2212000;64;20523;-33
2022/01/05 07:58:52;;;;;;;29.15;12.20;;;-17.00;96.30;;;;;;2212232;64;20097;-33
2022/01/05 08:01:24;;;;;;;48.90;16.77;;;-17.00;95.90;;;;;;2212200;64;20089;-32
2022/01/05 08:03:56;;;;;;;49.07;15.60;;;-16.80;95.50;;;;;;2209044;64;20458;-32
2022/01/05 08:06:28;;;;;;;38.50;15.50;;;-16.70;95.90;;;;;;2213834;64;20104;-33
2022/01/05 08:09:02;;;;;;;50.87;17.17;;;-16.90;95.50;;;;;;2220135;64;20100;-31
2022/01/05 08:11:34;;;;;;;;;;;-16.40;96.30;;;;;;2220374;64;20085;-32
2022/01/05 08:14:08;;;;;;;45.07;15.30;;;-16.60;95.40;;;;;;2220240;64;19965;-34
2022/01/05 08:16:40;;;;;;;;;;;-16.50;95.60;;;;;;2220477;64;20103;-32
2022/01/05 08:19:13;;;;;;;8.20;3.47;;;-16.30;95.90;;;;;;2220269;64;19968;-31
2022/01/05 08:21:47;;;;;;;32.88;12.45;;;-16.30;95.80;;;;;;2223274;64;20182;-36
2022/01/05 08:24:19;;;;;;;44.53;19.43;;;-16.30;95.50;;;;;;2219987;64;20097;-31
2022/01/05 08:26:58;;;;;;;22.67;7.57;;;-16.30;95.60;;;;;;2217059;64;20096;-34
2022/01/05 08:29:30;;;;;;;24.03;9.13;;;-16.10;95.80;;;;;;2223136;64;20155;-37
2022/01/05 08:32:04;;;;;;;59.93;18.30;;;-16.00;95.80;;;;;;2223246;64;20104;-32
2022/01/05 08:34:44;;;;;;;50.60;18.30;;;-16.10;95.20;;;;;;2223106;64;20101;-33
2022/01/05 08:37:22;;;;;;;56.33;18.70;;;-16.10;94.70;;;;;;2219999;64;20096;-35
2022/01/05 08:40:00;;;;;;;73.60;21.53;;;-16.00;95.00;;;;;;2223218;64;20625;-33
2022/01/05 08:42:44;;;;;;;88.17;24.27;;;-15.90;94.70;;;;;;2217113;64;20097;-32
2022/01/05 08:45:23;;;;;;;88.50;28.50;;;-15.90;94.70;;;;;;2220221;64;20092;-35
2022/01/05 08:47:59;;;;;;;87.80;29.73;;;-15.80;94.40;;;;;;2220055;64;20189;-33
2022/01/05 08:50:33;;;;;;;44.63;17.13;;;-16.00;94.60;;;;;;2223168;64;20563;-34
2022/01/05 08:53:12;;;;;;;64.87;22.50;;;-15.70;95.20;;;;;;2220159;64;20564;-35
2022/01/05 08:56:00;;;;;;;61.97;21.63;;;-15.50;95.00;;;;;;2223080;64;20472;-32
2022/01/05 08:58:36;;;;;;;74.33;22.30;;;-15.50;94.80;;;;;;2223278;64;20085;-32
2022/01/05 09:01:12;;;;;;;53.33;19.63;;;-15.40;94.70;;;;;;2223054;64;20096;-31
2022/01/05 09:03:47;;;;;;;67.77;21.77;;;-15.30;94.80;;;;;;2220027;64;20101;-35
2022/01/05 09:06:19;;;;;;;48.00;16.77;;;-15.00;95.10;;;;;;2223106;64;20475;-33
2022/01/05 09:08:51;;;;;;;59.90;22.57;;;-15.00;94.70;;;;;;2218614;64;20089;-33
2022/01/05 09:11:23;;;;;;;61.97;22.53;;;-14.90;94.70;;;;;;2218951;64;20644;-33
2022/01/05 09:13:55;;;;;;;54.17;20.93;;;-14.70;94.80;;;;;;2218937;64;20580;-34
2022/01/05 09:16:30;;;;;;;65.25;19.85;;;-14.60;95.00;;;;;;2218955;64;20080;-44
2022/01/05 09:19:03;;;;;;;51.73;19.53;;;-14.70;94.10;;;;;;2216002;64;20080;-31
2022/01/05 09:21:35;;;;;;;45.67;18.13;;;-14.50;94.20;;;;;;2215950;64;20138;-30
2022/01/05 09:24:10;;;;;;;54.58;18.80;;;-14.70;94.40;;;;;;2215814;64;20204;-32
2022/01/05 09:26:44;;;;;;;31.90;13.10;;;-14.70;93.50;;;;;;2216324;64;20155;-32
2022/01/05 09:29:16;;;;;;;55.47;17.50;;;-15.10;93.70;;;;;;2215973;64;20169;-34
2022/01/05 09:31:54;;;;;;;33.77;10.63;;;-15.30;93.60;;;;;;2215951;64;20097;-31
2022/01/05 09:34:32;;;;;;;44.73;14.73;;;-15.60;93.40;;;;;;2215496;64;20590;-34
2022/01/05 09:37:07;;;;;;;45.83;13.67;;;-16.00;94.20;;;;;;2215672;64;20155;-35
2022/01/05 09:42:32;;;;;;;33.70;12.33;;;-16.20;94.40;;;;;;2219839;64;20468;-32
2022/01/05 09:45:14;;;;;;;36.60;12.07;;;-16.30;94.40;;;;;;2219984;64;20433;-33
2022/01/05 09:48:08;;;;;;;22.77;5.60;;;-16.20;94.40;;;;;;2064203;68;200336;-34
2022/01/05 09:50:56;;;;;;;48.23;18.17;;;-16.50;94.60;;;;;;2221019;64;20206;-33
2022/01/05 09:53:29;;;;;;;39.30;17.50;;;-16.30;94.60;;;;;;2223838;64;20168;-33
2022/01/05 09:56:01;;;;;;;46.67;16.17;;;-16.10;95.00;;;;;;2220931;64;20106;-34
2022/01/05 09:58:35;;;;;;;60.33;21.40;;;-16.20;94.40;;;;;;2217710;64;20138;-31
2022/01/05 10:01:07;;;;;;;22.50;7.75;;;-16.10;94.40;;;;;;2223913;64;20551;-33
2022/01/05 10:03:39;;;;;;;38.80;12.77;;;-15.50;94.80;;;;;;2223921;64;20100;-32
2022/01/05 10:06:12;;;;;;;61.20;22.07;;;-15.50;94.10;;;;;;2223942;64;20100;-31
2022/01/05 10:08:44;;;;;;;57.03;19.53;;;-15.40;94.00;;;;;;2224095;64;20091;-31
2022/01/05 10:11:17;;;;;;;45.73;15.90;;;-15.20;93.00;;;;;;2223907;64;20137;-35
2022/01/05 10:13:52;;;;;;;54.63;19.90;;;-15.30;92.80;;;;;;2223912;64;20103;-33
2022/01/05 10:16:24;;;;;;;64.53;19.95;;;-15.20;92.80;;;;;;2223900;64;20095;-33
2022/01/05 10:18:56;;;;;;;55.43;18.97;;;-14.90;92.90;;;;;;2223801;64;20108;-33
2022/01/05 10:21:38;;;;;;;49.53;13.50;;;-14.80;92.50;;;;;;2223887;64;20115;-33
2022/01/05 10:24:10;;;;;;;63.13;20.03;;;-14.80;92.90;;;;;;2223827;64;20555;-31
2022/01/05 10:26:42;;;;;;;67.43;20.17;;;-14.90;93.20;;;;;;2220809;64;20092;-33
2022/01/05 10:29:16;;;;;;;70.53;22.23;;;-15.00;93.40;;;;;;2223854;64;20163;-36
2022/01/05 10:31:55;;;;;;;54.50;19.40;;;-14.90;93.60;;;;;;2223884;64;20107;-31
2022/01/05 10:34:29;;;;;;;56.40;19.87;;;-14.90;93.60;;;;;;2223799;64;20119;-33
2022/01/05 10:37:05;;;;;;;57.17;20.05;;;-15.00;93.10;;;;;;2223872;64;20095;-32
2022/01/05 10:39:39;;;;;;;43.10;16.37;;;-14.70;93.30;;;;;;2223698;64;20155;-34
2022/01/05 10:42:12;;;;;;;39.58;13.95;;;-14.60;93.30;;;;;;2223598;64;20076;-33
2022/01/05 10:44:46;;;;;;;56.20;19.30;;;-14.60;93.10;;;;;;2223734;64;20087;-33
2022/01/05 10:47:18;;;;;;;53.70;18.95;;;-14.60;93.50;;;;;;2204853;64;20480;-33
2022/01/05 10:49:50;;;;;;;45.27;18.47;;;-14.50;93.40;;;;;;2214259;64;20643;-34
2022/01/05 10:52:28;;;;;;;45.80;18.53;;;-14.50;93.40;;;;;;2210930;64;20098;-33
2022/01/05 10:55:11;;;;;;;52.63;19.67;;;-14.50;94.00;;;;;;2211153;64;20093;-32
2022/01/05 10:58:03;;;;;;;42.90;16.50;;;-14.40;93.30;;;;;;2213270;64;20568;-32
2022/01/05 11:00:45;;;;;;;49.67;19.17;;;-14.50;93.30;;;;;;2208511;64;20153;-33
2022/01/05 11:03:41;;;;;;;57.40;18.73;;;-14.60;92.50;;;;;;2211393;64;20509;-34
2022/01/05 11:06:17;;;;;;;47.03;18.43;;;-15.00;92.60;;;;;;2210947;64;20497;-35
2022/01/05 11:08:50;;;;;;;37.47;13.70;;;-15.20;92.90;;;;;;2208413;64;20163;-32
2022/01/05 11:11:49;;;;;;;46.70;17.20;;;-15.00;93.60;;;;;;2208375;64;20207;-31
2022/01/05 11:14:31;;;;;;;51.43;17.97;;;-14.60;93.30;;;;;;2208366;64;20101;-34
2022/01/05 11:17:06;;;;;;;48.03;16.80;;;-14.70;93.30;;;;;;2208185;64;20093;-32
2022/01/05 11:19:37;;;;;;;40.95;13.68;;;-14.60;93.30;;;;;;2223847;64;20088;-32
2022/01/05 11:22:14;;;;;;;40.57;15.17;;;-15.10;93.10;;;;;;2220890;64;20084;-34
2022/01/05 11:24:53;;;;;;;47.07;17.40;;;-14.90;93.10;;;;;;2220948;64;20534;-33
2022/01/05 11:27:28;;;;;;;41.53;15.47;;;-14.70;93.70;;;;;;2220876;64;20475;-34
2022/01/05 11:30:00;;;;;;;34.73;13.67;;;-14.60;93.30;;;;;;2220771;64;20552;-34
2022/01/05 11:32:34;;;;;;;44.20;15.83;;;-14.50;92.70;;;;;;2220873;64;20107;-32
2022/01/05 11:35:07;;;;;;;33.92;15.52;;;-14.90;92.20;;;;;;2217677;64;20560;-33
2022/01/05 11:37:42;;;;;;;35.60;13.13;;;-15.10;92.50;;;;;;2220894;64;20172;-34
2022/01/05 11:40:14;;;;;;;41.30;15.13;;;-15.10;92.70;;;;;;2220813;64;20155;-32
2022/01/05 11:42:48;;;;;;;47.53;13.90;;;-14.80;92.60;;;;;;2220872;64;20096;-31
2022/01/05 11:45:51;;;;;;;41.70;14.17;;;-15.00;92.20;;;;;;2220866;64;20433;-34
2022/01/05 11:48:28;;;;;;;33.97;11.50;;;-15.20;93.00;;;;;;2207515;64;20105;-34
2022/01/05 11:51:01;;;;;;;44.47;14.67;;;-15.20;93.10;;;;;;2204337;64;20118;-37
2022/01/05 11:53:45;;;;;;;29.73;11.27;;;-15.20;93.00;;;;;;2204418;64;20117;-33
2022/01/05 11:56:21;;;;;;;20.93;8.73;;;-15.20;92.90;;;;;;2204356;64;20094;-33
2022/01/05 11:59:01;;;;;;;28.10;10.37;;;-15.50;92.60;;;;;;2204497;64;20175;-34
2022/01/05 12:01:37;;;;;;;38.50;13.73;;;-15.60;93.20;;;;;;2207480;64;20090;-35
2022/01/05 12:04:11;;;;;;;29.07;9.60;;;-15.60;93.60;;;;;;2204312;64;20652;-32
2022/01/05 12:06:46;;;;;;;32.38;10.82;;;-15.60;93.80;;;;;;2204180;64;20090;-37
2022/01/05 12:09:22;;;;;;;42.23;17.47;;;-15.70;93.80;;;;;;2204123;64;20118;-37
2022/01/05 12:11:55;;;;;;;43.47;15.93;;;-15.80;93.60;;;;;;2204523;64;20192;-31
2022/01/05 12:14:26;;;;;;;50.77;16.30;;;-15.80;93.70;;;;;;2207343;64;20166;-32
2022/01/05 12:17:07;;;;;;;43.17;14.40;;;-15.80;93.90;;;;;;2204276;64;20661;-31
2022/01/05 12:19:47;;;;;;;49.33;15.43;;;-16.20;93.80;;;;;;2204263;64;20085;-35
2022/01/05 12:22:29;;;;;;;56.07;16.60;;;-16.20;94.10;;;;;;2204087;64;20104;-34
2022/01/05 12:25:04;;;;;;;42.67;14.70;;;-16.50;94.10;;;;;;2213190;64;20077;-33
2022/01/05 12:27:58;;;;;;;39.73;14.23;;;-16.80;94.60;;;;;;2216649;64;20196;-31
2022/01/05 12:30:31;;;;;;;40.17;15.27;;;-16.90;94.80;;;;;;2217015;64;20107;-33
2022/01/05 12:33:16;;;;;;;45.77;15.93;;;-17.20;95.20;;;;;;2216915;64;20107;-32
2022/01/05 12:35:49;;;;;;;54.43;22.87;;;-17.20;95.30;;;;;;2217002;64;20092;-35
2022/01/05 12:38:33;;;;;;;52.30;19.53;;;-16.80;96.30;;;;;;2216933;64;20109;-33
2022/01/05 12:41:37;;;;;;;15.77;4.20;;;-16.40;96.70;;;;;;2216902;64;20165;-34
2022/01/05 12:44:12;;;;;;;21.73;4.97;;;-17.00;95.20;;;;;;2210077;64;20100;-31
2022/01/05 12:46:49;;;;;;;36.33;13.30;;;-17.30;95.70;;;;;;2216581;64;20092;-34
2022/01/05 12:49:26;;;;;;;10.47;3.53;;;-17.40;96.20;;;;;;2216944;64;20077;-31
2022/01/05 12:52:00;;;;;;;21.43;8.53;;;-17.60;96.20;;;;;;2207092;64;20115;-33
2022/01/05 12:54:43;;;;;;;9.07;5.17;;;-17.60;96.40;;;;;;2216976;64;20088;-33
2022/01/05 12:57:25;;;;;;;18.40;7.87;;;-17.60;96.50;;;;;;2216956;64;20093;-35
2022/01/05 12:59:57;;;;;;;36.50;11.63;;;-17.70;96.80;;;;;;2217017;64;20077;-33
2022/01/05 13:02:30;;;;;;;14.83;5.33;;;-17.70;97.00;;;;;;2213933;64;20096;-33
2022/01/05 13:05:06;;;;;;;1.03;0.73;;;-17.70;97.10;;;;;;2216709;64;20077;-33